Time;durP1;ratioP1;P1;durP2;ratioP2;P2;SDS_P1;SDS_P2;PMS_P1;PMS_P2;Temp;Humidity;BMP_temperature;BMP_pressure;BME280_temperature;BME280_humidity;BME280_pressure;Samples;Min_cycle;Max_cycle;Signal;HPM_P1;HPM_P2
2024/04/05 00:01:31;;;;;;;8.27;2.50;;;14.40;98.50;;;;;;5057291;28;20420;-84
2024/04/05 00:03:57;;;;;;;17.83;3.10;;;14.40;98.70;;;;;;5049345;28;20392;-84
2024/04/05 00:06:23;;;;;;;20.40;4.38;;;14.30;98.90;;;;;;5063300;28;20033;-83
2024/04/05 00:08:49;;;;;;;16.02;3.92;;;14.30;99.10;;;;;;5062152;28;20036;-83
2024/04/05 00:11:15;;;;;;;25.35;3.17;;;14.20;99.30;;;;;;5049083;28;20503;-84
2024/04/05 00:13:41;;;;;;;11.55;1.92;;;14.20;99.40;;;;;;5065551;28;20040;-84
2024/04/05 00:16:07;;;;;;;10.35;3.42;;;14.20;99.50;;;;;;5062159;28;20039;-84
2024/04/05 00:18:36;;;;;;;13.43;3.03;;;14.20;99.50;;;;;;5063274;28;20036;-84
2024/04/05 00:21:03;;;;;;;11.40;2.33;;;14.20;99.60;;;;;;5058657;28;20127;-84
2024/04/05 00:23:28;;;;;;;16.25;3.10;;;14.20;99.70;;;;;;5058000;28;20032;-84
2024/04/05 00:26:05;;;;;;;12.07;2.72;;;14.20;99.70;;;;;;5058764;28;22184;-83
2024/04/05 00:28:36;;;;;;;16.33;2.78;;;14.20;99.70;;;;;;5065819;28;20032;-84
2024/04/05 00:31:04;;;;;;;40.67;5.40;;;14.20;99.70;;;;;;5060512;28;20136;-84
2024/04/05 00:33:32;;;;;;;15.50;2.78;;;14.20;99.70;;;;;;5063888;28;20089;-84
2024/04/05 00:35:58;;;;;;;10.60;2.53;;;14.20;99.80;;;;;;5061809;28;21374;-84
2024/04/05 00:38:25;;;;;;;15.45;3.40;;;14.20;99.90;;;;;;5051247;28;20036;-85
2024/04/05 00:40:52;;;;;;;23.65;4.20;;;14.20;99.90;;;;;;5050878;28;20068;-84
2024/04/05 00:43:18;;;;;;;10.10;2.28;;;14.20;99.90;;;;;;5050817;28;20372;-84
2024/04/05 00:45:46;;;;;;;18.25;3.03;;;14.10;99.90;;;;;;5057090;28;20036;-84
2024/04/05 00:48:14;;;;;;;6.55;1.52;;;14.10;99.90;;;;;;5055337;28;20040;-84
2024/04/05 00:50:40;;;;;;;7.78;2.33;;;14.20;99.90;;;;;;5060535;28;20361;-84
2024/04/05 00:53:10;;;;;;;16.15;4.47;;;14.10;99.90;;;;;;5055002;28;20020;-84
2024/04/05 00:55:37;;;;;;;10.35;2.97;;;14.10;99.90;;;;;;5049522;28;20043;-83
2024/04/05 00:58:04;;;;;;;28.38;3.38;;;14.10;99.90;;;;;;5060932;28;20040;-83
2024/04/05 01:00:31;;;;;;;3.50;1.77;;;14.10;99.90;;;;;;5060323;28;20056;-84
2024/04/05 01:02:57;;;;;;;18.17;1.92;;;14.10;99.90;;;;;;5061362;28;20383;-84
2024/04/05 01:05:24;;;;;;;13.82;1.92;;;14.10;99.90;;;;;;5065210;28;20040;-84
2024/04/05 01:07:51;;;;;;;9.63;2.05;;;14.10;99.90;;;;;;5047040;28;20464;-84
2024/04/05 01:10:17;;;;;;;13.82;2.63;;;14.20;99.90;;;;;;5056711;28;20499;-85
2024/04/05 01:12:43;;;;;;;34.90;3.67;;;14.20;99.90;;;;;;5062579;28;20143;-84
2024/04/05 01:15:11;;;;;;;15.20;3.60;;;14.20;99.90;;;;;;5050077;28;20029;-85
2024/04/05 01:17:36;;;;;;;8.38;1.52;;;14.20;99.90;;;;;;5060408;28;20029;-84
2024/04/05 01:20:06;;;;;;;18.88;2.58;;;14.20;99.90;;;;;;5052301;28;20040;-85
2024/04/05 01:22:44;;;;;;;16.40;5.75;;;14.20;99.90;;;;;;5047180;28;20436;-84
2024/04/05 01:25:10;;;;;;;28.77;3.50;;;14.10;99.90;;;;;;5048136;28;20522;-85
2024/04/05 01:27:38;;;;;;;20.70;3.58;;;14.20;99.90;;;;;;5049739;28;20036;-84
2024/04/05 01:30:04;;;;;;;11.00;2.25;;;14.10;99.90;;;;;;5065067;28;20047;-84
2024/04/05 01:32:30;;;;;;;27.27;3.30;;;14.10;99.90;;;;;;5055762;28;20056;-83
2024/04/05 01:34:55;;;;;;;15.25;2.88;;;14.10;99.90;;;;;;5053483;28;20071;-84
2024/04/05 01:37:21;;;;;;;12.85;3.55;;;14.10;99.90;;;;;;5054574;28;20499;-84
2024/04/05 01:39:46;;;;;;;7.45;3.00;;;14.10;99.90;;;;;;5054999;28;20039;-84
2024/04/05 01:42:12;;;;;;;17.58;2.58;;;14.10;99.90;;;;;;5050818;28;20028;-84
2024/04/05 01:44:38;;;;;;;12.23;3.00;;;14.10;99.90;;;;;;5060929;28;20036;-84
2024/04/05 01:47:03;;;;;;;10.13;2.28;;;14.10;99.90;;;;;;5059827;28;20020;-84
2024/04/05 01:49:29;;;;;;;14.98;3.63;;;14.10;99.90;;;;;;5052730;28;20040;-83
2024/04/05 01:51:54;;;;;;;17.45;3.10;;;14.10;99.90;;;;;;5056504;28;20036;-84
2024/04/05 01:54:21;;;;;;;16.02;2.05;;;14.10;99.90;;;;;;5064516;28;20078;-84
2024/04/05 01:56:47;;;;;;;8.15;2.47;;;14.10;99.80;;;;;;5052802;28;20115;-84
2024/04/05 01:59:12;;;;;;;18.85;2.97;;;14.10;99.80;;;;;;5052145;28;20140;-84
2024/04/05 02:01:38;;;;;;;14.57;2.15;;;14.20;99.80;;;;;;5050253;28;20055;-84
2024/04/05 02:04:04;;;;;;;8.02;2.72;;;14.10;99.70;;;;;;5052636;28;20087;-84
2024/04/05 02:06:29;;;;;;;8.70;3.28;;;14.20;99.70;;;;;;5051785;28;20034;-84
2024/04/05 02:08:55;;;;;;;0.68;0.35;;;14.20;99.60;;;;;;5060919;28;20513;-84
2024/04/05 02:11:20;;;;;;;11.13;2.47;;;14.20;99.60;;;;;;5068957;28;20040;-84
2024/04/05 02:13:46;;;;;;;16.08;2.17;;;14.20;99.60;;;;;;5062475;28;20097;-84
2024/04/05 02:16:11;;;;;;;19.70;3.05;;;14.20;99.60;;;;;;5060458;28;20435;-84
2024/04/05 02:18:37;;;;;;;23.15;4.18;;;14.20;99.50;;;;;;5047441;28;20033;-85
2024/04/05 02:21:03;;;;;;;19.42;3.45;;;14.20;99.60;;;;;;5060143;28;20041;-85
2024/04/05 02:23:29;;;;;;;5.63;1.50;;;14.20;99.60;;;;;;5056912;28;20025;-83
2024/04/05 02:25:55;;;;;;;7.72;2.28;;;14.20;99.50;;;;;;5065942;28;20047;-84
2024/04/05 02:28:20;;;;;;;11.40;2.80;;;14.20;99.50;;;;;;5065225;28;20365;-83
2024/04/05 02:30:46;;;;;;;26.65;3.00;;;14.30;99.50;;;;;;5059968;28;20228;-84
2024/04/05 02:33:12;;;;;;;17.02;3.40;;;14.20;99.50;;;;;;5059322;28;20036;-84
2024/04/05 02:35:38;;;;;;;7.78;1.08;;;14.30;99.50;;;;;;5055539;28;20611;-85
2024/04/05 02:38:04;;;;;;;36.08;3.78;;;14.30;99.50;;;;;;5050737;28;20036;-84
2024/04/05 02:40:30;;;;;;;17.15;1.52;;;14.20;99.40;;;;;;5063672;28;20093;-84
2024/04/05 02:42:56;;;;;;;9.68;1.40;;;14.30;99.40;;;;;;5066806;28;20458;-84
2024/04/05 02:45:22;;;;;;;20.55;2.95;;;14.20;99.40;;;;;;5057988;28;20025;-84
2024/04/05 02:47:47;;;;;;;11.95;2.92;;;14.30;99.30;;;;;;5052970;28;20124;-84
2024/04/05 02:50:13;;;;;;;7.85;1.88;;;14.30;99.30;;;;;;5055547;28;20028;-84
2024/04/05 02:52:38;;;;;;;10.45;2.50;;;14.30;99.30;;;;;;5070675;28;20048;-85
2024/04/05 02:55:05;;;;;;;6.82;1.42;;;14.30;99.30;;;;;;5055368;28;20032;-85
2024/04/05 02:57:31;;;;;;;14.38;2.90;;;14.30;99.30;;;;;;5051182;28;20028;-84
2024/04/05 02:59:57;;;;;;;17.85;2.72;;;14.20;99.20;;;;;;5067545;28;20048;-85
2024/04/05 03:02:22;;;;;;;28.40;3.47;;;14.30;99.30;;;;;;5061282;28;20020;-85
2024/04/05 03:04:48;;;;;;;8.40;1.77;;;14.30;99.30;;;;;;5050051;28;20110;-84
2024/04/05 03:07:14;;;;;;;8.80;1.65;;;14.20;99.30;;;;;;5063517;28;20032;-84
2024/04/05 03:09:42;;;;;;;5.95;1.48;;;14.20;99.30;;;;;;5050197;28;20467;-84
2024/04/05 03:12:08;;;;;;;10.25;2.35;;;14.20;99.30;;;;;;5052383;28;20488;-85
2024/04/05 03:14:33;;;;;;;14.00;1.95;;;14.20;99.40;;;;;;5063054;28;20033;-85
2024/04/05 03:17:00;;;;;;;10.70;2.63;;;14.20;99.40;;;;;;5048293;28;20040;-82
2024/04/05 03:19:25;;;;;;;25.10;3.35;;;14.20;99.40;;;;;;5052346;28;20038;-84
2024/04/05 03:21:51;;;;;;;5.18;1.90;;;14.10;99.40;;;;;;5063490;28;20105;-84
2024/04/05 03:24:16;;;;;;;10.82;2.92;;;14.10;99.40;;;;;;5060671;28;20170;-85
2024/04/05 03:26:42;;;;;;;7.07;2.40;;;14.10;99.40;;;;;;5065695;28;20036;-84
2024/04/05 03:29:08;;;;;;;5.72;0.88;;;14.10;99.60;;;;;;5050845;28;20028;-85
2024/04/05 03:31:35;;;;;;;12.57;2.45;;;14.10;99.60;;;;;;5063053;28;20040;-84
2024/04/05 03:34:01;;;;;;;6.50;1.65;;;14.10;99.60;;;;;;5065713;28;20025;-84
2024/04/05 03:36:26;;;;;;;14.27;2.90;;;14.10;99.70;;;;;;5054201;28;20969;-84
2024/04/05 03:38:52;;;;;;;4.15;1.52;;;14.10;99.60;;;;;;5054914;28;20425;-84
2024/04/05 03:41:17;;;;;;;3.63;1.30;;;14.10;99.70;;;;;;5051597;28;20484;-84
2024/04/05 03:43:44;;;;;;;2.80;1.17;;;14.10;99.60;;;;;;5064613;28;20709;-84
2024/04/05 03:46:09;;;;;;;6.53;1.88;;;14.10;99.70;;;;;;5056785;28;20497;-84
2024/04/05 03:48:35;;;;;;;13.70;1.88;;;14.10;99.70;;;;;;5067937;28;20044;-85
2024/04/05 03:51:01;;;;;;;24.48;3.78;;;14.20;99.60;;;;;;5068335;28;20025;-84
2024/04/05 03:53:27;;;;;;;31.90;4.72;;;14.20;99.60;;;;;;5061650;28;20024;-85
2024/04/05 03:55:55;;;;;;;6.32;1.85;;;14.30;99.60;;;;;;5059744;28;20488;-84
2024/04/05 03:58:22;;;;;;;19.58;3.28;;;14.30;99.40;;;;;;5058722;28;20028;-84
2024/04/05 04:00:51;;;;;;;14.13;3.05;;;14.30;99.40;;;;;;5049939;28;20041;-84
2024/04/05 04:03:17;;;;;;;20.45;3.42;;;14.40;99.30;;;;;;5063040;28;20071;-84
2024/04/05 04:05:44;;;;;;;22.75;3.78;;;14.40;99.10;;;;;;5062393;28;20052;-83
2024/04/05 04:08:10;;;;;;;17.00;4.60;;;14.60;99.10;;;;;;5051849;28;20025;-84
2024/04/05 04:10:36;;;;;;;21.33;3.55;;;14.60;99.00;;;;;;5059964;28;20090;-84
2024/04/05 04:13:02;;;;;;;26.75;3.97;;;14.60;98.90;;;;;;5063620;28;20483;-84
2024/04/05 04:15:27;;;;;;;17.63;2.78;;;14.60;98.80;;;;;;5059935;28;20032;-84
2024/04/05 04:17:53;;;;;;;29.73;4.70;;;14.70;98.80;;;;;;5056165;28;20391;-83
2024/04/05 04:20:19;;;;;;;35.53;6.25;;;14.70;98.70;;;;;;5067599;28;20507;-83
2024/04/05 04:22:45;;;;;;;15.45;3.78;;;14.70;98.70;;;;;;5060287;28;20028;-84
2024/04/05 04:25:14;;;;;;;18.33;5.18;;;14.80;98.60;;;;;;5064975;28;20043;-84
2024/04/05 04:27:41;;;;;;;21.20;4.18;;;14.70;98.60;;;;;;5067225;28;20027;-83
2024/04/05 04:30:09;;;;;;;16.00;3.17;;;14.70;98.50;;;;;;5068964;28;20036;-84
2024/04/05 04:32:35;;;;;;;19.40;3.55;;;14.70;98.60;;;;;;5053650;28;20039;-84
2024/04/05 04:35:01;;;;;;;20.75;4.72;;;14.70;98.50;;;;;;5068093;28;20037;-84
2024/04/05 04:37:27;;;;;;;19.38;2.55;;;14.70;98.50;;;;;;5055374;28;20033;-84
2024/04/05 04:39:52;;;;;;;20.83;4.68;;;14.70;98.50;;;;;;5050267;28;20052;-84
2024/04/05 04:42:18;;;;;;;22.58;4.70;;;14.70;98.50;;;;;;5060791;28;20025;-84
2024/04/05 04:44:44;;;;;;;20.08;3.10;;;14.70;98.60;;;;;;5058078;28;20143;-83
2024/04/05 04:47:09;;;;;;;10.50;1.88;;;14.70;98.70;;;;;;5057168;28;20104;-84
2024/04/05 04:49:35;;;;;;;5.93;1.52;;;14.70;98.70;;;;;;5054235;28;20495;-84
2024/04/05 04:52:01;;;;;;;9.38;2.35;;;14.70;98.80;;;;;;5056582;28;20036;-84
2024/04/05 04:54:28;;;;;;;6.55;2.03;;;14.60;98.90;;;;;;5062914;28;20047;-84
2024/04/05 04:56:54;;;;;;;5.38;1.55;;;14.50;99.10;;;;;;5051071;28;20025;-85
2024/04/05 04:59:23;;;;;;;9.20;2.55;;;14.40;99.20;;;;;;5048695;28;20446;-83
2024/04/05 05:01:49;;;;;;;8.40;1.13;;;14.40;99.40;;;;;;5061236;28;20035;-85
2024/04/05 05:04:15;;;;;;;17.98;3.35;;;14.40;99.80;;;;;;5055241;28;20024;-82
2024/04/05 05:06:40;;;;;;;14.80;1.90;;;14.40;99.60;;;;;;5059804;28;20477;-83
2024/04/05 05:09:06;;;;;;;6.93;2.10;;;14.40;99.70;;;;;;5060797;28;20028;-82
2024/04/05 05:11:32;;;;;;;16.05;3.38;;;14.40;99.70;;;;;;5058674;28;20036;-83
2024/04/05 05:13:57;;;;;;;7.68;1.83;;;14.40;99.80;;;;;;5057871;28;20456;-84
2024/04/05 05:16:24;;;;;;;6.15;2.13;;;14.40;99.80;;;;;;5048835;28;20082;-84
2024/04/05 05:18:50;;;;;;;9.82;2.00;;;14.40;99.90;;;;;;5059708;28;20451;-76
2024/04/05 05:21:16;;;;;;;15.20;3.17;;;14.40;99.90;;;;;;5068105;28;20119;-86
2024/04/05 05:23:42;;;;;;;13.23;3.20;;;14.40;99.80;;;;;;5057995;28;20472;-85
2024/04/05 05:26:07;;;;;;;3.72;1.67;;;14.40;99.80;;;;;;5048565;28;20029;-84
2024/04/05 05:28:33;;;;;;;21.17;3.17;;;14.50;99.90;;;;;;5053190;28;20039;-85
2024/04/05 05:30:59;;;;;;;27.15;3.53;;;14.40;99.80;;;;;;5061888;28;20497;-86
2024/04/05 05:33:25;;;;;;;26.67;3.53;;;14.50;99.80;;;;;;5055089;28;20028;-82
2024/04/05 05:35:51;;;;;;;17.33;2.35;;;14.50;99.80;;;;;;5056199;28;20124;-84
2024/04/05 05:38:16;;;;;;;29.10;3.30;;;14.50;99.80;;;;;;5061259;28;20107;-85
2024/04/05 05:40:42;;;;;;;15.45;2.78;;;14.60;99.80;;;;;;5064304;28;20131;-81
2024/04/05 05:43:08;;;;;;;18.55;3.03;;;14.60;99.70;;;;;;5055109;28;20107;-86
2024/04/05 05:45:33;;;;;;;4.00;1.52;;;14.60;99.60;;;;;;5052051;28;20032;-85
2024/04/05 05:47:59;;;;;;;5.57;2.50;;;14.70;99.50;;;;;;5051822;28;20029;-85
2024/04/05 05:50:26;;;;;;;7.25;1.30;;;14.70;99.40;;;;;;5060644;28;20043;-85
2024/04/05 05:52:52;;;;;;;15.65;2.90;;;14.70;99.50;;;;;;5059808;28;20033;-85
2024/04/05 05:55:20;;;;;;;24.20;2.72;;;14.60;99.50;;;;;;5052894;28;20031;-85
2024/04/05 05:57:46;;;;;;;13.10;2.20;;;14.70;99.50;;;;;;5048613;28;20574;-85
2024/04/05 06:00:13;;;;;;;14.32;2.90;;;14.70;99.50;;;;;;5059730;28;20064;-85
2024/04/05 06:02:39;;;;;;;20.33;3.92;;;14.70;99.50;;;;;;5055891;28;20060;-85
2024/04/05 06:05:11;;;;;;;24.00;3.53;;;14.90;99.70;;;;;;5050844;28;20120;-85
2024/04/05 06:07:37;;;;;;;26.95;4.03;;;14.90;99.40;;;;;;5056498;28;20035;-85
2024/04/05 06:10:03;;;;;;;28.02;3.53;;;15.00;99.30;;;;;;5050086;28;20037;-85
2024/04/05 06:12:29;;;;;;;16.83;3.53;;;15.00;99.10;;;;;;5053619;28;20042;-85
2024/04/05 06:14:58;;;;;;;12.98;2.92;;;15.10;98.90;;;;;;5060708;28;20040;-85
2024/04/05 06:17:25;;;;;;;17.67;3.05;;;15.10;98.70;;;;;;5069323;28;20052;-85
2024/04/05 06:19:57;;;;;;;19.23;3.88;;;15.10;98.70;;;;;;5060711;28;20041;-86
2024/04/05 06:22:25;;;;;;;13.80;2.28;;;15.10;98.80;;;;;;5051449;28;20029;-85
2024/04/05 06:24:51;;;;;;;15.48;2.50;;;15.00;98.80;;;;;;5066881;28;20435;-85
2024/04/05 06:27:18;;;;;;;17.33;2.75;;;15.10;99.00;;;;;;5068962;28;20441;-85
2024/04/05 06:29:51;;;;;;;18.30;3.20;;;15.00;99.00;;;;;;5064665;28;20090;-85
2024/04/05 06:32:17;;;;;;;7.95;1.35;;;15.00;99.20;;;;;;5063227;28;20025;-84
2024/04/05 06:34:43;;;;;;;19.67;4.13;;;14.90;99.20;;;;;;5071618;28;20055;-85
2024/04/05 06:37:09;;;;;;;16.65;3.58;;;14.90;99.30;;;;;;5064946;28;20028;-85
2024/04/05 06:39:35;;;;;;;15.35;3.50;;;15.00;99.30;;;;;;5051122;28;20041;-86
2024/04/05 06:42:00;;;;;;;28.55;4.40;;;15.00;99.20;;;;;;5051084;28;20036;-86
2024/04/05 06:44:31;;;;;;;15.02;2.70;;;14.90;99.20;;;;;;5065096;28;20147;-86
2024/04/05 06:46:58;;;;;;;9.85;2.08;;;15.00;99.20;;;;;;5063704;28;20044;-85
2024/04/05 06:49:24;;;;;;;14.88;3.58;;;15.10;99.20;;;;;;5063701;28;20032;-85
2024/04/05 06:51:51;;;;;;;19.63;4.38;;;15.10;99.20;;;;;;5063468;28;20085;-81
2024/04/05 06:54:17;;;;;;;27.88;3.22;;;15.00;99.20;;;;;;5062980;28;20037;-80
2024/04/05 06:56:43;;;;;;;23.35;3.38;;;15.00;99.30;;;;;;5052615;28;20043;-86
2024/04/05 06:59:08;;;;;;;14.73;3.00;;;15.00;99.30;;;;;;5063392;28;20048;-82
2024/04/05 07:01:34;;;;;;;4.40;1.58;;;15.10;99.30;;;;;;5061586;28;20031;-86
2024/04/05 07:04:00;;;;;;;13.55;2.70;;;15.10;99.30;;;;;;5068056;28;20032;-84
2024/04/05 07:06:25;;;;;;;22.63;3.45;;;15.10;99.30;;;;;;5058524;28;20040;-83
2024/04/05 07:08:52;;;;;;;19.00;3.55;;;15.00;99.40;;;;;;5057640;28;20135;-84
2024/04/05 07:11:18;;;;;;;16.08;3.55;;;15.10;99.50;;;;;;5064448;28;20120;-84
2024/04/05 07:13:43;;;;;;;14.73;2.47;;;15.00;99.50;;;;;;5057611;28;20056;-84
2024/04/05 07:16:11;;;;;;;6.95;1.10;;;15.00;99.60;;;;;;5060984;28;20037;-84
2024/04/05 07:18:37;;;;;;;11.27;2.75;;;15.00;99.60;;;;;;5055372;28;20106;-87
2024/04/05 07:21:03;;;;;;;18.20;2.90;;;15.00;99.60;;;;;;5068949;28;20052;-86
2024/04/05 07:23:29;;;;;;;20.67;3.28;;;15.00;99.70;;;;;;5061094;28;20032;-85
2024/04/05 07:25:55;;;;;;;10.60;3.33;;;15.00;99.70;;;;;;5053668;28;20051;-87
2024/04/05 07:28:22;;;;;;;5.72;1.52;;;15.10;99.70;;;;;;5070754;28;20024;-86
2024/04/05 07:30:48;;;;;;;12.27;2.10;;;15.10;99.60;;;;;;5067200;28;20032;-86
2024/04/05 07:33:14;;;;;;;5.57;2.05;;;15.10;99.70;;;;;;5058420;28;20052;-87
2024/04/05 07:35:40;;;;;;;15.35;3.08;;;15.10;99.70;;;;;;5068227;28;20029;-87
2024/04/05 07:38:06;;;;;;;7.28;1.52;;;15.20;99.70;;;;;;5065642;28;20036;-87
2024/04/05 07:40:35;;;;;;;14.45;2.90;;;15.10;99.70;;;;;;5066778;28;20090;-87
2024/04/05 07:43:02;;;;;;;10.18;2.28;;;15.10;99.80;;;;;;5058183;28;20491;-86
2024/04/05 07:45:28;;;;;;;7.03;1.77;;;15.10;99.90;;;;;;5054731;28;20083;-87
2024/04/05 07:47:54;;;;;;;6.03;1.85;;;15.10;99.90;;;;;;5050247;28;20488;-86
2024/04/05 07:50:21;;;;;;;14.82;2.65;;;15.20;99.90;;;;;;5051237;28;20473;-86
2024/04/05 07:52:53;;;;;;;10.05;2.53;;;15.20;99.90;;;;;;5053893;28;20024;-86
2024/04/05 07:55:19;;;;;;;7.60;1.92;;;15.20;99.90;;;;;;5055391;28;20033;-84
2024/04/05 07:57:45;;;;;;;11.90;2.60;;;15.20;99.90;;;;;;5054402;28;20589;-85
2024/04/05 08:00:14;;;;;;;18.08;3.55;;;15.30;99.90;;;;;;5063947;28;20055;-86
2024/04/05 08:02:48;;;;;;;11.25;2.15;;;15.30;99.90;;;;;;5063002;28;20025;-86
2024/04/05 08:05:14;;;;;;;13.95;3.10;;;15.30;99.90;;;;;;5067687;28;20033;-86
2024/04/05 08:07:40;;;;;;;23.80;3.17;;;15.30;99.90;;;;;;5052799;28;20469;-86
2024/04/05 08:10:07;;;;;;;15.10;2.92;;;15.40;99.90;;;;;;5055719;28;20052;-86
2024/04/05 08:12:33;;;;;;;12.43;3.25;;;15.40;99.90;;;;;;5056797;28;20938;-86
2024/04/05 08:14:59;;;;;;;20.05;3.30;;;15.50;99.90;;;;;;5061203;28;20068;-86
2024/04/05 08:17:24;;;;;;;14.15;3.97;;;15.50;99.90;;;;;;5058203;28;20020;-86
2024/04/05 08:19:50;;;;;;;19.30;3.65;;;15.50;99.90;;;;;;5048479;28;20083;-87
2024/04/05 08:22:16;;;;;;;14.63;3.13;;;15.60;99.90;;;;;;5058054;28;20481;-86
2024/04/05 08:24:43;;;;;;;2.83;1.48;;;15.60;99.80;;;;;;5057226;28;20036;-87
2024/04/05 08:27:09;;;;;;;10.77;2.80;;;15.70;99.70;;;;;;5054508;28;20709;-86
2024/04/05 08:29:35;;;;;;;16.92;3.60;;;15.70;99.70;;;;;;5060053;28;20119;-86
2024/04/05 08:32:01;;;;;;;13.20;3.05;;;15.80;99.60;;;;;;5054360;28;20464;-87
2024/04/05 08:34:27;;;;;;;23.88;4.00;;;15.80;99.60;;;;;;5054094;28;20047;-87
2024/04/05 08:36:52;;;;;;;21.83;3.45;;;15.90;99.30;;;;;;5062202;28;20041;-87
2024/04/05 08:39:18;;;;;;;22.10;3.40;;;15.80;99.20;;;;;;5062312;28;20025;-87
2024/04/05 08:41:48;;;;;;;10.63;2.95;;;15.90;99.30;;;;;;5049902;28;20041;-86
2024/04/05 08:44:17;;;;;;;20.15;3.97;;;15.90;99.30;;;;;;5056910;28;20024;-87
2024/04/05 08:46:43;;;;;;;19.80;3.55;;;16.00;99.20;;;;;;5053112;28;20029;-86
2024/04/05 08:49:15;;;;;;;16.88;3.72;;;16.00;99.10;;;;;;5055910;28;20447;-86
2024/04/05 08:51:41;;;;;;;22.52;3.35;;;16.10;99.00;;;;;;5053296;28;20420;-87
2024/04/05 08:54:14;;;;;;;11.48;2.08;;;16.10;99.10;;;;;;5059017;28;20748;-87
2024/04/05 08:56:45;;;;;;;18.90;3.55;;;16.20;99.10;;;;;;5047673;28;20032;-87
2024/04/05 08:59:11;;;;;;;22.20;3.67;;;16.20;98.90;;;;;;5064835;28;20044;-86
2024/04/05 09:01:36;;;;;;;23.45;4.30;;;16.20;98.90;;;;;;5025967;28;20029;-86
2024/04/05 09:04:03;;;;;;;19.15;3.80;;;16.10;99.00;;;;;;5027498;28;20033;-87
2024/04/05 09:06:29;;;;;;;21.30;3.30;;;16.20;99.20;;;;;;5046247;28;20065;-87
2024/04/05 09:08:54;;;;;;;18.35;3.97;;;16.20;99.00;;;;;;5044988;28;20068;-87
2024/04/05 09:11:22;;;;;;;12.63;3.53;;;16.10;99.10;;;;;;5058504;28;20040;-88
2024/04/05 09:14:15;;;;;;;14.93;3.58;;;16.20;99.20;;;;;;5041666;28;20044;-87
2024/04/05 09:16:42;;;;;;;9.60;2.30;;;16.20;99.10;;;;;;5035470;28;20063;-87
2024/04/05 09:19:12;;;;;;;10.50;2.38;;;16.20;99.20;;;;;;5039563;28;20069;-86
2024/04/05 09:21:44;;;;;;;12.80;3.40;;;16.20;99.20;;;;;;5052761;28;20124;-87
2024/04/05 09:24:11;;;;;;;16.15;3.33;;;16.20;99.10;;;;;;5051452;28;20082;-82
2024/04/05 09:26:37;;;;;;;7.68;2.58;;;16.30;99.10;;;;;;5042422;28;20025;-82
2024/04/05 09:29:12;;;;;;;13.98;3.15;;;16.30;98.90;;;;;;5030660;28;20434;-83
2024/04/05 09:31:45;;;;;;;14.15;2.78;;;16.40;99.00;;;;;;5031674;28;20056;-82
2024/04/05 09:34:14;;;;;;;5.60;2.00;;;16.40;99.30;;;;;;5039349;28;20736;-82
2024/04/05 09:36:40;;;;;;;9.68;2.28;;;16.40;99.30;;;;;;5040198;28;20037;-81
2024/04/05 09:39:13;;;;;;;10.45;2.53;;;16.50;99.10;;;;;;5041907;28;20037;-82
2024/04/05 09:41:40;;;;;;;6.15;2.00;;;16.40;99.00;;;;;;5053666;28;20448;-82
2024/04/05 09:44:07;;;;;;;4.25;1.35;;;16.40;99.00;;;;;;5027637;28;20088;-82
2024/04/05 09:46:35;;;;;;;13.27;2.58;;;16.50;99.20;;;;;;5038068;28;20041;-82
2024/04/05 09:49:02;;;;;;;8.52;2.10;;;16.50;99.00;;;;;;5025095;28;20057;-83
2024/04/05 09:51:52;;;;;;;11.32;2.42;;;16.50;99.10;;;;;;5026217;28;20037;-83
2024/04/05 09:54:21;;;;;;;4.32;1.70;;;16.50;99.20;;;;;;5034451;28;20489;-82
2024/04/05 09:56:48;;;;;;;6.32;1.60;;;16.60;99.20;;;;;;5036516;28;20021;-83
2024/04/05 09:59:20;;;;;;;9.20;2.28;;;16.60;99.10;;;;;;5038713;28;20037;-83
2024/04/05 10:01:46;;;;;;;8.57;2.15;;;16.60;99.30;;;;;;5039761;28;20025;-84
2024/04/05 10:04:13;;;;;;;14.50;3.28;;;16.60;99.30;;;;;;5032371;28;20065;-86
2024/04/05 10:06:39;;;;;;;11.55;2.50;;;16.60;99.30;;;;;;5024892;28;20052;-86
2024/04/05 10:09:15;;;;;;;8.38;2.35;;;16.60;99.40;;;;;;5019657;28;20160;-86
2024/04/05 10:11:44;;;;;;;5.20;1.48;;;16.60;99.50;;;;;;5035127;28;20112;-86
2024/04/05 10:14:19;;;;;;;5.45;1.55;;;16.60;99.50;;;;;;5022455;28;20050;-86
2024/04/05 10:16:44;;;;;;;5.15;1.85;;;16.60;99.70;;;;;;5024329;28;20108;-86
2024/04/05 10:19:11;;;;;;;10.00;2.03;;;16.60;99.90;;;;;;5021625;28;20113;-86
2024/04/05 10:21:37;;;;;;;5.30;1.35;;;16.60;99.90;;;;;;5032920;28;20028;-86
2024/04/05 10:24:05;;;;;;;9.68;2.65;;;16.60;99.90;;;;;;5015888;28;20050;-85
2024/04/05 10:26:33;;;;;;;6.97;1.77;;;16.60;99.90;;;;;;5027862;28;20028;-86
2024/04/05 10:29:05;;;;;;;1.73;1.17;;;16.50;99.90;;;;;;5014135;28;20033;-86
2024/04/05 10:31:32;;;;;;;5.72;1.58;;;16.50;99.90;;;;;;5014750;28;20199;-87
2024/04/05 10:34:03;;;;;;;7.25;1.75;;;16.60;99.90;;;;;;5017155;28;20073;-86
2024/04/05 10:36:31;;;;;;;5.65;1.65;;;16.50;99.90;;;;;;5027469;28;20029;-86
2024/04/05 10:38:56;;;;;;;4.15;1.98;;;16.50;99.90;;;;;;5021483;28;20413;-86
2024/04/05 10:41:22;;;;;;;5.85;1.85;;;16.50;99.90;;;;;;5019474;28;20018;-86
2024/04/05 10:43:59;;;;;;;11.27;2.13;;;16.50;99.90;;;;;;5017686;28;20109;-86
2024/04/05 10:46:25;;;;;;;3.30;1.67;;;16.50;99.90;;;;;;5023558;28;20056;-87
2024/04/05 10:49:00;;;;;;;4.88;1.52;;;16.50;99.90;;;;;;5021760;28;20060;-87
2024/04/05 10:51:27;;;;;;;8.95;1.67;;;16.50;99.90;;;;;;5022791;28;20505;-79
2024/04/05 10:53:54;;;;;;;7.40;2.00;;;16.50;99.90;;;;;;5021902;28;20219;-82
2024/04/05 10:56:22;;;;;;;9.93;1.50;;;16.50;99.90;;;;;;5033851;28;20028;-85
2024/04/05 10:58:48;;;;;;;14.55;2.78;;;16.50;99.90;;;;;;5031091;28;20041;-83
2024/04/05 11:01:14;;;;;;;11.43;2.28;;;16.50;99.90;;;;;;5024483;28;20036;-86
2024/04/05 11:03:40;;;;;;;15.82;3.13;;;16.50;99.90;;;;;;5018933;28;20029;-87
2024/04/05 11:06:06;;;;;;;16.17;2.88;;;16.60;99.90;;;;;;5015123;28;20041;-85
2024/04/05 11:08:32;;;;;;;9.50;2.35;;;16.50;99.90;;;;;;5039414;28;20037;-84
2024/04/05 11:10:58;;;;;;;10.57;2.63;;;16.50;99.90;;;;;;5021911;28;20025;-86
2024/04/05 11:13:26;;;;;;;7.15;2.13;;;16.60;99.90;;;;;;5017765;28;20063;-86
2024/04/05 11:16:04;;;;;;;5.18;1.95;;;16.60;99.90;;;;;;5022902;28;20040;-84
2024/04/05 11:18:37;;;;;;;10.82;2.67;;;16.70;99.90;;;;;;5033027;28;20544;-83
2024/04/05 11:21:04;;;;;;;12.82;3.17;;;16.70;99.90;;;;;;5013336;28;20044;-78
2024/04/05 11:23:30;;;;;;;5.38;2.00;;;16.80;99.90;;;;;;5029597;28;20122;-87
2024/04/05 11:25:56;;;;;;;6.88;1.98;;;16.80;99.90;;;;;;5047358;28;20061;-86
2024/04/05 11:28:23;;;;;;;6.25;2.08;;;16.80;99.90;;;;;;5038135;28;20036;-87
2024/04/05 11:30:52;;;;;;;8.80;2.53;;;16.70;99.90;;;;;;5025055;28;20059;-85
2024/04/05 11:33:18;;;;;;;8.07;2.03;;;16.70;99.90;;;;;;5023361;28;20622;-87
2024/04/05 11:35:45;;;;;;;8.52;2.28;;;16.70;99.90;;;;;;5017878;28;20110;-85
2024/04/05 11:38:13;;;;;;;5.78;2.25;;;16.80;99.90;;;;;;5015088;28;20037;-87
2024/04/05 11:40:38;;;;;;;3.65;1.33;;;16.80;99.90;;;;;;5023035;28;20064;-87
2024/04/05 11:43:08;;;;;;;3.53;1.65;;;16.70;99.90;;;;;;5021844;28;20080;-85
2024/04/05 11:45:35;;;;;;;2.42;1.08;;;16.70;99.90;;;;;;5009802;28;20079;-86
2024/04/05 11:48:02;;;;;;;2.65;1.20;;;16.70;99.90;;;;;;5007869;28;20044;-83
2024/04/05 11:50:28;;;;;;;2.90;1.40;;;16.70;99.90;;;;;;5009582;28;20053;-83
2024/04/05 11:52:53;;;;;;;4.50;1.67;;;16.60;99.90;;;;;;5013294;28;20088;-84
2024/04/05 11:55:20;;;;;;;3.45;0.93;;;16.60;99.90;;;;;;5022038;28;20112;-84
2024/04/05 11:57:46;;;;;;;6.22;1.70;;;16.50;99.90;;;;;;5008627;28;20461;-83
2024/04/05 12:00:13;;;;;;;9.10;1.90;;;16.50;99.90;;;;;;5009138;28;20073;-86
2024/04/05 12:02:39;;;;;;;1.45;1.05;;;16.40;99.90;;;;;;5020387;28;20115;-85
2024/04/05 12:05:07;;;;;;;1.45;0.98;;;16.40;99.90;;;;;;5020511;28;20041;-83
2024/04/05 12:07:33;;;;;;;2.22;1.48;;;16.40;99.90;;;;;;5009189;28;20174;-83
2024/04/05 12:09:59;;;;;;;3.45;1.38;;;16.40;99.90;;;;;;5007256;28;20034;-76
2024/04/05 12:12:26;;;;;;;2.60;1.58;;;16.40;99.90;;;;;;5021281;28;20084;-80
2024/04/05 12:14:51;;;;;;;15.00;3.22;;;16.40;99.90;;;;;;5020336;28;20041;-79
2024/04/05 12:17:17;;;;;;;6.97;2.75;;;16.40;99.90;;;;;;5010094;28;20029;-80
2024/04/05 12:19:42;;;;;;;6.97;2.83;;;16.30;99.90;;;;;;5009292;28;20025;-80
2024/04/05 12:22:08;;;;;;;5.72;2.65;;;16.30;99.90;;;;;;5008213;28;20045;-77
2024/04/05 12:24:34;;;;;;;6.97;2.65;;;16.30;99.90;;;;;;5039067;28;20032;-79
2024/04/05 12:27:02;;;;;;;11.05;1.88;;;16.30;99.90;;;;;;5021830;28;20103;-79
2024/04/05 12:29:28;;;;;;;5.22;2.28;;;16.30;99.90;;;;;;5026173;28;20028;-79
2024/04/05 12:31:54;;;;;;;5.53;1.50;;;16.30;99.90;;;;;;5017666;28;20034;-79
2024/04/05 12:34:20;;;;;;;4.50;1.75;;;16.30;99.90;;;;;;5018995;28;20265;-80
2024/04/05 12:36:45;;;;;;;8.73;1.85;;;16.30;99.90;;;;;;5016997;28;20030;-78
2024/04/05 12:39:28;;;;;;;6.13;1.90;;;16.30;99.90;;;;;;5041050;28;20499;-79